createdAt,value
2018-03-29T00:06:45.744Z,997.4
2018-03-29T00:17:31.385Z,997.5
2018-03-29T00:27:42.851Z,997.6
2018-03-29T00:37:56.775Z,997.6
2018-03-29T00:48:10.798Z,997.8
2018-03-29T00:58:22.481Z,997.9
2018-03-29T01:08:37.616Z,998.0
2018-03-29T01:18:48.810Z,998.1
2018-03-29T01:29:33.767Z,998.2
2018-03-29T01:39:48.189Z,998.3
2018-03-29T01:50:02.661Z,998.3
2018-03-29T02:00:16.402Z,998.4
2018-03-29T02:10:30.695Z,998.5
2018-03-29T02:20:44.966Z,998.7
2018-03-29T02:30:59.138Z,998.8
2018-03-29T02:41:10.415Z,998.7
2018-03-29T02:51:24.532Z,998.9
2018-03-29T03:01:36.259Z,999.1
2018-03-29T03:11:55.538Z,999.0
2018-03-29T03:22:09.588Z,999.1
2018-03-29T03:32:54.983Z,999.2
2018-03-29T03:43:08.653Z,999.3
2018-03-29T03:53:22.642Z,999.1
2018-03-29T04:04:07.147Z,999.4
2018-03-29T04:14:20.587Z,999.5
2018-03-29T04:24:34.128Z,999.6
2018-03-29T04:34:48.526Z,999.7
2018-03-29T04:45:14.223Z,999.8
2018-03-29T04:55:27.855Z,999.8
2018-03-29T05:05:39.145Z,999.9
2018-03-29T05:15:53.783Z,1000.0
2018-03-29T05:26:39.219Z,1000.0
2018-03-29T05:36:53.755Z,1000.0
2018-03-29T05:47:07.979Z,1000.2
2018-03-29T05:57:54.495Z,1000.2
2018-03-29T06:08:08.548Z,1000.3
2018-03-29T06:18:22.083Z,1000.3
2018-03-29T06:29:07.387Z,1000.4
2018-03-29T06:39:21.118Z,1000.6
2018-03-29T06:49:32.750Z,1000.5
2018-03-29T06:59:46.657Z,1000.5
2018-03-29T07:10:01.115Z,1000.6
2018-03-29T07:20:46.203Z,1000.6
2018-03-29T07:30:57.887Z,1000.7
2018-03-29T07:41:09.251Z,1000.7
2018-03-29T07:51:23.092Z,1000.8
2018-03-29T08:02:08.072Z,1000.7
2018-03-29T08:12:22.657Z,1000.8
2018-03-29T08:23:08.253Z,1000.9
2018-03-29T08:33:53.685Z,1001.1
2018-03-29T08:44:38.282Z,1001.1
2018-03-29T08:55:02.969Z,1001.1
2018-03-29T09:05:16.675Z,1001.3
2018-03-29T09:16:02.486Z,1001.3
2018-03-29T09:27:08.641Z,1001.4
2018-03-29T09:38:07.053Z,1001.5
2018-03-29T09:48:34.033Z,1001.3
2018-03-29T10:09:03.916Z,1001.3
2018-03-29T10:19:18.481Z,1001.4
2018-03-29T10:30:29.279Z,1001.4
2018-03-29T10:41:14.668Z,1001.2
2018-03-29T10:52:03.277Z,1001.2
2018-03-29T11:02:17.004Z,1001.1
2018-03-29T11:23:11.603Z,1001.0
2018-03-29T11:33:37.711Z,1001.0
2018-03-29T11:44:01.786Z,1001.2
2018-03-29T11:54:58.765Z,1001.1
2018-03-29T12:15:43.527Z,1001.0
2018-03-29T12:26:35.189Z,1001.6
2018-03-29T12:36:58.742Z,1001.3
2018-03-29T12:47:28.237Z,1000.7
2018-03-29T12:58:21.505Z,1000.9
2018-03-29T13:19:04.595Z,1001.0
2018-03-29T13:50:28.722Z,1000.9
2018-03-29T14:00:40.153Z,1000.7
2018-03-29T14:10:54.052Z,1001.0
2018-03-29T14:21:05.803Z,1000.8
2018-03-29T14:31:17.945Z,1000.9
2018-03-29T14:41:32.057Z,1001.1
2018-03-29T15:02:02.578Z,1002.2
2018-03-29T15:12:13.482Z,1002.7
2018-03-29T15:22:30.515Z,1002.5
2018-03-29T15:32:47.582Z,1001.2
2018-03-29T15:43:06.814Z,1001.0
2018-03-29T15:53:27.820Z,1000.9
2018-03-29T16:14:02.915Z,1001.1
2018-03-29T16:24:14.808Z,1001.1
2018-03-29T16:34:28.952Z,1001.2
2018-03-29T16:44:42.740Z,1001.3
2018-03-29T16:54:56.009Z,1001.3
2018-03-29T17:05:23.692Z,1001.3
2018-03-29T17:15:37.526Z,1001.4
2018-03-29T17:25:52.298Z,1001.4
2018-03-29T17:36:07.662Z,1001.4
2018-03-29T17:47:02.872Z,1001.7
2018-03-29T17:57:18.923Z,1001.6
2018-03-29T18:07:33.522Z,1001.9
2018-03-29T18:18:23.032Z,1002.0
2018-03-29T18:29:58.158Z,1002.1
